ADDS METAR Data INFO
IDs: Format: Raw Decoded Include TAF

Data at: 1022 UTC 12 Dec 2017

KMMK 120953Z AUTO 00000KT 10SM BKN043 OVC080 M01/M03 A2982 RMK AO2 SLP099 T10061033
KMMK 120853Z AUTO 31003KT 10SM SCT080 BKN090 BKN110 M01/M04 A2986 RMK AO2 SLP113 T10111039 58025
KMMK 120753Z AUTO 00000KT 10SM BKN095 M01/M03 A2989 RMK AO2 SLP122 T10111033
KMMK 120653Z AUTO 00000KT 10SM OVC080 M01/M04 A2992 RMK AO2 SLP132 T10061039
KMMK 120553Z AUTO 00000KT 10SM OVC095 M01/M04 A2993 RMK AO2 SLP138 T10061039 11006 21017 58019
KMMK 120453Z AUTO 00000KT 10SM FEW065 OVC085 M01/M04 A2996 RMK AO2 SLP147 T10111039 400391022
KMMK 120353Z AUTO 00000KT 10SM OVC090 M01/M04 A2998 RMK AO2 SLP154 T10111039
KMMK 120253Z AUTO 00000KT 10SM OVC110 M02/M04 A2999 RMK AO2 SLP157 T10171039 58008
KMMK 120153Z AUTO 00000KT 10SM CLR M02/M04 A3000 RMK AO2 SLP161 T10171044
KMMK 120053Z AUTO 00000KT 10SM CLR M01/M05 A3001 RMK AO2 SLP164 T10111050
KMMK 112353Z AUTO 00000KT 10SM CLR M01/M04 A3001 RMK AO2 SLP165 T10111044 10039 21017 53005
KMMK 112253Z AUTO 00000KT 10SM CLR M01/M06 A3000 RMK AO2 SLP160 T10061056
KMMK 112153Z AUTO 00000KT 10SM CLR M01/M06 A3000 RMK AO2 SLP161 T10061056
KMMK 112053Z AUTO 27005KT 10SM CLR 03/M08 A3000 RMK AO2 SLP159 T00281078 53009
KMMK 111953Z AUTO 29006KT 10SM CLR 03/M07 A2997 RMK AO2 SLP151 T00331072
KMMK 111853Z AUTO 27006KT 10SM CLR 03/M07 A2996 RMK AO2 SLP147 T00331067
KMMK 111753Z AUTO 28007KT 10SM CLR 03/M07 A2997 RMK AO2 SLP150 T00331067 10033 21006 58010
KMMK 111653Z AUTO 28008KT 10SM CLR 03/M07 A3000 RMK AO2 SLP159 T00281067
KMMK 111553Z AUTO 29006KT 10SM CLR 02/M06 A3000 RMK AO2 SLP162 T00221061
KMMK 111453Z AUTO VRB05KT 10SM CLR 01/M06 A3000 RMK AO2 SLP161 T00111061 51006
KMMK 111353Z AUTO 20005KT 10SM SCT080 00/M06 A3000 RMK AO2 SLP160 T00001056
KMMK 111253Z AUTO 19006KT 10SM OVC090 M01/M06 A2999 RMK AO2 SLP156 T10061056
KMMK 111153Z AUTO 21006KT 10SM BKN065 OVC100 00/M06 A2998 RMK AO2 SLP155 T00001061 10006 21022 51007
KMMK 111053Z AUTO 17003KT 10SM SCT060 OVC080 00/M06 A2998 RMK AO2 SLP153 T00001061
KMMK 110953Z AUTO 00000KT 10SM BKN070 OVC090 M02/M06 A2997 RMK AO2 SLP150 T10221056
KMMK 110853Z AUTO 00000KT 10SM CLR 00/M06 A2996 RMK AO2 SLP147 T00001061 56004
KMMK 110753Z AUTO 00000KT 10SM BKN065 OVC075 M01/M06 A2996 RMK AO2 SLP148 T10061056
KMMK 110653Z AUTO 18004KT 10SM OVC080 00/M06 A2997 RMK AO2 SLP150 T00001061
KMMK 110553Z AUTO VRB05KT 10SM OVC095 01/M06 A2997 RMK AO2 SLP151 T00061061 10011 21039 58001
KMMK 110453Z AUTO 15003KT 10SM OVC100 00/M06 A2998 RMK AO2 SLP155 T00001056 400331050
KMMK 110353Z AUTO 18004KT 10SM SCT110 01/M06 A2998 RMK AO2 SLP152 T00061061
KMMK 110253Z AUTO 20005KT 10SM CLR 01/M06 A2998 RMK AO2 SLP153 T00061061 51009
KMMK 110153Z AUTO 22005KT 10SM CLR 01/M06 A2997 RMK AO2 SLP150 T00111061
KMMK 110053Z AUTO 00000KT 10SM BKN065 M03/M06 A2997 RMK AO2 SLP151 T10331056
KMMK 102353Z AUTO 00000KT 10SM CLR M03/M05 A2995 RMK AO2 SLP144 T10281050 10033 21033 51016
KMMK 102253Z AUTO 18003KT 10SM CLR M03/M06 A2994 RMK AO2 SLP141 T10281061